Portada
METAR-TAF:

METAR-TAF

Aeroports :

Nouakchott, Mauritània

latitud: 18-18-36N, longitud: 015-58-11W, altitud: 3 m

Observació

L'informe es va fer fa 20 minuts, a les 08:30 UTC
Vent 8 kt del Oest/Sud-Oest
Temperatura 28°C
Humitat 84%
Pressió 1014 hPa
Visibilitat: 8000 m
Núvols disperses a una alçada de 2000 ft

METAR: GQNO 210830Z 24008KT 8000 SCT020 28/25 Q1014 NOSIG

Hora: 08:50 (08:50 UTC)

Pronòstic

L'informe es va fer fa 3 hores i 50 minuts, a les 05:00 UTC
Pronòstic vàlid del 21 a les 06 UTC al 22 a les 12 UTC
Vent 12 kt del Oest/Nord-Oest
Visibilitat: 7000 m
Núvols disperses a una alçada de 1000 ft
Temporalment
l' 21 a les 06 UTC al 21 a les 09 UTC
pluja

TAF: GQNO 210500Z 2106/2212 30012KT 7000 SCT010 TEMPO 2106/2109 RA

Observacions i pronòstics meteorològics de més de 4000 aeroports (METAR i TAF).

Les estacions disponibles són els punts grocs i vermells al mapa.

Posi el ratolí al punt desitjat per veure el nom de l'estació.

Feu clic per veure les observacions i els pronòstics meteorològics.

Per canviar el mapa: feu clic els botons verds amb una creu de color negre per apropar; al botó verd amb un guió per allunyar la imatge; o en les fletxes verdes per a mapes adjacents.


METAR-TAF: